sensor_id;sensor_type;location;lat;lon;timestamp;P1;durP1;ratioP1;P2;durP2;ratioP2
78781;SDS011;68126;55.748;48.742;2023-10-31T00:02:01;5.33;;;4.83;;
78781;SDS011;68126;55.748;48.742;2023-10-31T00:07:26;5.90;;;2.87;;
78781;SDS011;68126;55.748;48.742;2023-10-31T00:12:51;6.30;;;5.58;;
78781;SDS011;68126;55.748;48.742;2023-10-31T00:18:16;5.40;;;4.90;;
78781;SDS011;68126;55.748;48.742;2023-10-31T00:29:25;5.83;;;5.28;;
78781;SDS011;68126;55.748;48.742;2023-10-31T00:34:50;8.80;;;5.35;;
78781;SDS011;68126;55.748;48.742;2023-10-31T00:40:15;6.28;;;4.62;;
78781;SDS011;68126;55.748;48.742;2023-10-31T00:45:40;9.63;;;4.60;;
78781;SDS011;68126;55.748;48.742;2023-10-31T00:51:05;9.53;;;5.47;;
78781;SDS011;68126;55.748;48.742;2023-10-31T00:56:29;7.28;;;4.15;;
78781;SDS011;68126;55.748;48.742;2023-10-31T01:01:54;4.92;;;4.42;;
78781;SDS011;68126;55.748;48.742;2023-10-31T01:07:19;5.15;;;4.70;;
78781;SDS011;68126;55.748;48.742;2023-10-31T01:12:44;8.33;;;3.67;;
78781;SDS011;68126;55.748;48.742;2023-10-31T01:18:08;20.15;;;6.35;;
78781;SDS011;68126;55.748;48.742;2023-10-31T01:23:33;9.18;;;3.98;;
78781;SDS011;68126;55.748;48.742;2023-10-31T01:28:58;84.15;;;8.63;;
78781;SDS011;68126;55.748;48.742;2023-10-31T01:34:23;52.15;;;6.90;;
78781;SDS011;68126;55.748;48.742;2023-10-31T01:39:48;24.43;;;5.53;;
78781;SDS011;68126;55.748;48.742;2023-10-31T01:45:12;65.72;;;9.80;;
78781;SDS011;68126;55.748;48.742;2023-10-31T01:50:37;34.55;;;6.60;;
78781;SDS011;68126;55.748;48.742;2023-10-31T01:56:03;103.15;;;8.65;;
78781;SDS011;68126;55.748;48.742;2023-10-31T02:01:28;70.22;;;6.22;;
78781;SDS011;68126;55.748;48.742;2023-10-31T02:06:53;114.20;;;9.93;;
78781;SDS011;68126;55.748;48.742;2023-10-31T02:18:03;76.55;;;7.72;;
78781;SDS011;68126;55.748;48.742;2023-10-31T02:23:27;114.82;;;8.48;;
78781;SDS011;68126;55.748;48.742;2023-10-31T02:28:52;95.92;;;8.58;;
78781;SDS011;68126;55.748;48.742;2023-10-31T02:34:18;52.88;;;6.17;;
78781;SDS011;68126;55.748;48.742;2023-10-31T02:39:42;39.10;;;4.47;;
78781;SDS011;68126;55.748;48.742;2023-10-31T02:45:07;41.02;;;4.95;;
78781;SDS011;68126;55.748;48.742;2023-10-31T02:50:32;53.05;;;5.72;;
78781;SDS011;68126;55.748;48.742;2023-10-31T02:55:57;72.92;;;9.70;;
78781;SDS011;68126;55.748;48.742;2023-10-31T03:01:22;48.68;;;5.03;;
78781;SDS011;68126;55.748;48.742;2023-10-31T03:06:46;105.83;;;8.98;;
78781;SDS011;68126;55.748;48.742;2023-10-31T03:12:11;120.90;;;10.35;;
78781;SDS011;68126;55.748;48.742;2023-10-31T03:17:36;145.02;;;11.73;;
78781;SDS011;68126;55.748;48.742;2023-10-31T03:23:01;68.37;;;8.53;;
78781;SDS011;68126;55.748;48.742;2023-10-31T03:28:26;130.57;;;10.88;;
78781;SDS011;68126;55.748;48.742;2023-10-31T03:33:50;179.70;;;13.35;;
78781;SDS011;68126;55.748;48.742;2023-10-31T03:39:15;102.25;;;9.33;;
78781;SDS011;68126;55.748;48.742;2023-10-31T03:44:40;67.82;;;7.03;;
78781;SDS011;68126;55.748;48.742;2023-10-31T03:50:05;34.65;;;5.90;;
78781;SDS011;68126;55.748;48.742;2023-10-31T03:55:30;80.65;;;7.90;;
78781;SDS011;68126;55.748;48.742;2023-10-31T04:00:55;102.30;;;8.58;;
78781;SDS011;68126;55.748;48.742;2023-10-31T04:06:20;126.25;;;11.65;;
78781;SDS011;68126;55.748;48.742;2023-10-31T04:11:45;202.68;;;15.80;;
78781;SDS011;68126;55.748;48.742;2023-10-31T04:17:09;147.32;;;10.05;;
78781;SDS011;68126;55.748;48.742;2023-10-31T04:22:34;160.10;;;13.35;;
78781;SDS011;68126;55.748;48.742;2023-10-31T04:27:59;241.97;;;21.15;;
78781;SDS011;68126;55.748;48.742;2023-10-31T04:33:24;192.43;;;15.43;;
78781;SDS011;68126;55.748;48.742;2023-10-31T04:38:49;211.45;;;16.62;;
78781;SDS011;68126;55.748;48.742;2023-10-31T04:44:14;133.52;;;10.90;;
78781;SDS011;68126;55.748;48.742;2023-10-31T04:49:39;361.98;;;27.30;;
78781;SDS011;68126;55.748;48.742;2023-10-31T04:55:04;245.35;;;18.32;;
78781;SDS011;68126;55.748;48.742;2023-10-31T05:00:29;256.70;;;17.12;;
78781;SDS011;68126;55.748;48.742;2023-10-31T05:05:54;199.90;;;16.37;;
78781;SDS011;68126;55.748;48.742;2023-10-31T05:11:18;309.73;;;28.30;;
78781;SDS011;68126;55.748;48.742;2023-10-31T05:16:43;184.90;;;15.10;;
78781;SDS011;68126;55.748;48.742;2023-10-31T05:22:08;193.72;;;17.87;;
78781;SDS011;68126;55.748;48.742;2023-10-31T05:27:33;467.37;;;40.23;;
78781;SDS011;68126;55.748;48.742;2023-10-31T05:32:58;273.60;;;23.50;;
78781;SDS011;68126;55.748;48.742;2023-10-31T05:38:23;165.80;;;12.75;;
78781;SDS011;68126;55.748;48.742;2023-10-31T05:43:48;326.50;;;29.25;;
78781;SDS011;68126;55.748;48.742;2023-10-31T05:49:13;448.73;;;36.73;;
78781;SDS011;68126;55.748;48.742;2023-10-31T05:54:38;489.23;;;40.85;;
78781;SDS011;68126;55.748;48.742;2023-10-31T06:00:03;378.75;;;30.08;;
78781;SDS011;68126;55.748;48.742;2023-10-31T06:05:28;167.10;;;16.00;;
78781;SDS011;68126;55.748;48.742;2023-10-31T06:10:53;154.75;;;13.53;;
78781;SDS011;68126;55.748;48.742;2023-10-31T06:16:18;436.40;;;39.03;;
78781;SDS011;68126;55.748;48.742;2023-10-31T06:21:44;380.30;;;34.67;;
78781;SDS011;68126;55.748;48.742;2023-10-31T06:27:10;359.02;;;33.02;;
78781;SDS011;68126;55.748;48.742;2023-10-31T06:32:35;365.27;;;31.45;;
78781;SDS011;68126;55.748;48.742;2023-10-31T06:38:01;390.73;;;35.33;;
78781;SDS011;68126;55.748;48.742;2023-10-31T06:43:47;309.45;;;27.70;;
78781;SDS011;68126;55.748;48.742;2023-10-31T06:49:13;335.30;;;26.12;;
78781;SDS011;68126;55.748;48.742;2023-10-31T06:54:38;203.60;;;19.37;;
78781;SDS011;68126;55.748;48.742;2023-10-31T07:00:03;231.53;;;18.12;;
78781;SDS011;68126;55.748;48.742;2023-10-31T07:05:30;276.02;;;23.05;;
78781;SDS011;68126;55.748;48.742;2023-10-31T07:11:15;166.35;;;13.80;;
78781;SDS011;68126;55.748;48.742;2023-10-31T07:16:41;222.63;;;23.25;;
78781;SDS011;68126;55.748;48.742;2023-10-31T07:22:06;178.70;;;15.10;;
78781;SDS011;68126;55.748;48.742;2023-10-31T07:27:31;147.22;;;12.30;;
78781;SDS011;68126;55.748;48.742;2023-10-31T07:33:26;153.75;;;14.45;;
78781;SDS011;68126;55.748;48.742;2023-10-31T07:38:22;104.20;;;10.72;;
78781;SDS011;68126;55.748;48.742;2023-10-31T07:43:47;148.62;;;15.78;;
78781;SDS011;68126;55.748;48.742;2023-10-31T07:49:12;283.70;;;22.58;;
78781;SDS011;68126;55.748;48.742;2023-10-31T08:00:22;300.68;;;22.60;;
78781;SDS011;68126;55.748;48.742;2023-10-31T08:05:47;350.77;;;25.45;;
78781;SDS011;68126;55.748;48.742;2023-10-31T08:11:11;294.90;;;22.27;;
78781;SDS011;68126;55.748;48.742;2023-10-31T08:16:36;319.75;;;27.42;;
78781;SDS011;68126;55.748;48.742;2023-10-31T08:22:02;307.73;;;25.50;;
78781;SDS011;68126;55.748;48.742;2023-10-31T08:27:27;208.35;;;18.62;;
78781;SDS011;68126;55.748;48.742;2023-10-31T08:32:52;394.93;;;32.28;;
78781;SDS011;68126;55.748;48.742;2023-10-31T08:44:01;245.78;;;20.00;;
78781;SDS011;68126;55.748;48.742;2023-10-31T08:49:26;353.20;;;27.30;;
78781;SDS011;68126;55.748;48.742;2023-10-31T09:06:04;224.67;;;17.02;;
78781;SDS011;68126;55.748;48.742;2023-10-31T09:11:30;401.57;;;29.23;;
78781;SDS011;68126;55.748;48.742;2023-10-31T09:16:55;361.57;;;26.77;;
78781;SDS011;68126;55.748;48.742;2023-10-31T09:22:20;340.43;;;26.10;;
78781;SDS011;68126;55.748;48.742;2023-10-31T09:27:45;381.35;;;30.68;;
78781;SDS011;68126;55.748;48.742;2023-10-31T09:33:09;536.35;;;41.42;;
78781;SDS011;68126;55.748;48.742;2023-10-31T09:38:34;435.02;;;38.45;;
78781;SDS011;68126;55.748;48.742;2023-10-31T09:43:59;399.60;;;32.70;;
78781;SDS011;68126;55.748;48.742;2023-10-31T09:49:24;182.30;;;14.75;;
78781;SDS011;68126;55.748;48.742;2023-10-31T09:54:49;425.80;;;36.90;;
78781;SDS011;68126;55.748;48.742;2023-10-31T10:00:15;414.48;;;35.50;;
78781;SDS011;68126;55.748;48.742;2023-10-31T10:05:40;395.30;;;34.30;;
78781;SDS011;68126;55.748;48.742;2023-10-31T10:11:07;355.43;;;37.20;;
78781;SDS011;68126;55.748;48.742;2023-10-31T10:16:32;283.55;;;29.27;;
78781;SDS011;68126;55.748;48.742;2023-10-31T10:21:58;451.13;;;44.05;;
78781;SDS011;68126;55.748;48.742;2023-10-31T10:27:23;400.10;;;37.58;;
78781;SDS011;68126;55.748;48.742;2023-10-31T10:32:49;348.27;;;27.70;;
78781;SDS011;68126;55.748;48.742;2023-10-31T10:38:14;356.27;;;29.45;;
78781;SDS011;68126;55.748;48.742;2023-10-31T10:43:39;618.55;;;56.25;;
78781;SDS011;68126;55.748;48.742;2023-10-31T10:49:07;420.02;;;35.65;;
78781;SDS011;68126;55.748;48.742;2023-10-31T10:54:32;303.37;;;19.07;;
78781;SDS011;68126;55.748;48.742;2023-10-31T10:59:58;371.00;;;28.50;;
78781;SDS011;68126;55.748;48.742;2023-10-31T11:05:25;202.10;;;17.32;;
78781;SDS011;68126;55.748;48.742;2023-10-31T11:10:51;93.72;;;7.58;;
78781;SDS011;68126;55.748;48.742;2023-10-31T11:16:21;62.85;;;9.38;;
78781;SDS011;68126;55.748;48.742;2023-10-31T11:27:29;49.00;;;8.55;;
78781;SDS011;68126;55.748;48.742;2023-10-31T11:32:54;28.57;;;7.65;;
78781;SDS011;68126;55.748;48.742;2023-10-31T11:38:27;27.22;;;6.92;;
78781;SDS011;68126;55.748;48.742;2023-10-31T11:49:14;13.50;;;6.97;;
78781;SDS011;68126;55.748;48.742;2023-10-31T11:54:39;10.60;;;5.55;;
78781;SDS011;68126;55.748;48.742;2023-10-31T12:06:38;6.72;;;5.45;;
78781;SDS011;68126;55.748;48.742;2023-10-31T12:18:06;18.35;;;3.92;;
78781;SDS011;68126;55.748;48.742;2023-10-31T12:23:02;11.43;;;7.55;;
78781;SDS011;68126;55.748;48.742;2023-10-31T12:28:26;18.37;;;5.92;;
78781;SDS011;68126;55.748;48.742;2023-10-31T12:33:51;10.98;;;6.22;;
78781;SDS011;68126;55.748;48.742;2023-10-31T12:39:16;17.45;;;6.40;;
78781;SDS011;68126;55.748;48.742;2023-10-31T12:45:15;9.48;;;6.35;;
78781;SDS011;68126;55.748;48.742;2023-10-31T12:55:53;12.82;;;7.60;;
78781;SDS011;68126;55.748;48.742;2023-10-31T13:01:18;9.03;;;5.80;;
78781;SDS011;68126;55.748;48.742;2023-10-31T13:06:54;12.68;;;6.30;;
78781;SDS011;68126;55.748;48.742;2023-10-31T13:12:13;11.45;;;7.12;;
78781;SDS011;68126;55.748;48.742;2023-10-31T13:17:37;12.58;;;6.22;;
78781;SDS011;68126;55.748;48.742;2023-10-31T13:23:03;20.25;;;5.25;;
78781;SDS011;68126;55.748;48.742;2023-10-31T13:28:30;12.78;;;6.55;;
78781;SDS011;68126;55.748;48.742;2023-10-31T13:33:56;12.85;;;6.05;;
78781;SDS011;68126;55.748;48.742;2023-10-31T13:39:41;23.00;;;7.33;;
78781;SDS011;68126;55.748;48.742;2023-10-31T13:45:09;12.00;;;6.53;;
78781;SDS011;68126;55.748;48.742;2023-10-31T13:50:34;9.05;;;5.85;;
78781;SDS011;68126;55.748;48.742;2023-10-31T13:56:00;6.72;;;5.67;;
78781;SDS011;68126;55.748;48.742;2023-10-31T14:01:25;10.25;;;6.45;;
78781;SDS011;68126;55.748;48.742;2023-10-31T14:06:50;7.67;;;6.03;;
78781;SDS011;68126;55.748;48.742;2023-10-31T14:12:16;7.35;;;6.10;;
78781;SDS011;68126;55.748;48.742;2023-10-31T14:17:40;8.28;;;6.30;;
78781;SDS011;68126;55.748;48.742;2023-10-31T14:23:05;7.55;;;5.67;;
78781;SDS011;68126;55.748;48.742;2023-10-31T14:28:30;5.10;;;3.42;;
78781;SDS011;68126;55.748;48.742;2023-10-31T14:33:55;5.78;;;5.08;;
78781;SDS011;68126;55.748;48.742;2023-10-31T14:39:20;4.95;;;4.08;;
78781;SDS011;68126;55.748;48.742;2023-10-31T14:44:44;4.90;;;4.15;;
78781;SDS011;68126;55.748;48.742;2023-10-31T14:50:09;45.00;;;6.83;;
78781;SDS011;68126;55.748;48.742;2023-10-31T14:55:34;51.73;;;6.97;;
78781;SDS011;68126;55.748;48.742;2023-10-31T15:00:59;41.33;;;8.63;;
78781;SDS011;68126;55.748;48.742;2023-10-31T15:06:24;9.25;;;6.22;;
78781;SDS011;68126;55.748;48.742;2023-10-31T15:11:48;7.97;;;5.40;;
78781;SDS011;68126;55.748;48.742;2023-10-31T15:17:13;7.62;;;5.47;;
78781;SDS011;68126;55.748;48.742;2023-10-31T15:22:38;7.58;;;6.65;;
78781;SDS011;68126;55.748;48.742;2023-10-31T15:28:03;5.53;;;5.03;;
78781;SDS011;68126;55.748;48.742;2023-10-31T15:33:31;5.25;;;3.85;;
78781;SDS011;68126;55.748;48.742;2023-10-31T15:39:00;4.53;;;2.92;;
78781;SDS011;68126;55.748;48.742;2023-10-31T15:44:25;4.15;;;3.75;;
78781;SDS011;68126;55.748;48.742;2023-10-31T15:49:50;3.37;;;2.42;;
78781;SDS011;68126;55.748;48.742;2023-10-31T15:55:15;3.77;;;3.47;;
78781;SDS011;68126;55.748;48.742;2023-10-31T16:00:39;3.98;;;3.62;;
78781;SDS011;68126;55.748;48.742;2023-10-31T16:06:04;4.03;;;3.33;;
78781;SDS011;68126;55.748;48.742;2023-10-31T16:11:29;3.95;;;3.62;;
78781;SDS011;68126;55.748;48.742;2023-10-31T16:17:14;4.65;;;4.25;;
78781;SDS011;68126;55.748;48.742;2023-10-31T16:22:39;3.65;;;2.30;;
78781;SDS011;68126;55.748;48.742;2023-10-31T16:28:03;4.75;;;4.33;;
78781;SDS011;68126;55.748;48.742;2023-10-31T16:33:28;4.17;;;3.80;;
78781;SDS011;68126;55.748;48.742;2023-10-31T16:38:53;3.35;;;3.05;;
78781;SDS011;68126;55.748;48.742;2023-10-31T16:44:19;4.65;;;4.25;;
78781;SDS011;68126;55.748;48.742;2023-10-31T16:49:44;4.35;;;3.95;;
78781;SDS011;68126;55.748;48.742;2023-10-31T16:55:09;5.17;;;4.62;;
78781;SDS011;68126;55.748;48.742;2023-10-31T17:00:34;4.80;;;4.30;;
78781;SDS011;68126;55.748;48.742;2023-10-31T17:05:59;4.75;;;4.25;;
78781;SDS011;68126;55.748;48.742;2023-10-31T17:11:24;5.97;;;3.72;;
78781;SDS011;68126;55.748;48.742;2023-10-31T17:16:49;4.83;;;4.42;;
78781;SDS011;68126;55.748;48.742;2023-10-31T17:22:13;5.70;;;5.15;;
78781;SDS011;68126;55.748;48.742;2023-10-31T17:27:38;3.08;;;1.98;;
78781;SDS011;68126;55.748;48.742;2023-10-31T17:33:03;4.22;;;3.83;;
78781;SDS011;68126;55.748;48.742;2023-10-31T17:38:28;4.53;;;4.12;;
78781;SDS011;68126;55.748;48.742;2023-10-31T17:43:53;5.00;;;4.37;;
78781;SDS011;68126;55.748;48.742;2023-10-31T17:49:18;5.10;;;4.60;;
78781;SDS011;68126;55.748;48.742;2023-10-31T17:54:42;5.20;;;4.60;;
78781;SDS011;68126;55.748;48.742;2023-10-31T18:00:08;5.28;;;4.60;;
78781;SDS011;68126;55.748;48.742;2023-10-31T18:05:33;5.67;;;5.17;;
78781;SDS011;68126;55.748;48.742;2023-10-31T18:10:57;6.03;;;5.45;;
78781;SDS011;68126;55.748;48.742;2023-10-31T18:16:22;5.55;;;5.05;;
78781;SDS011;68126;55.748;48.742;2023-10-31T18:21:47;4.70;;;4.22;;
78781;SDS011;68126;55.748;48.742;2023-10-31T18:33:10;4.50;;;2.27;;
78781;SDS011;68126;55.748;48.742;2023-10-31T18:38:35;3.35;;;2.55;;
78781;SDS011;68126;55.748;48.742;2023-10-31T18:44:01;2.60;;;2.40;;
78781;SDS011;68126;55.748;48.742;2023-10-31T18:49:26;3.67;;;3.37;;
78781;SDS011;68126;55.748;48.742;2023-10-31T18:54:51;1.87;;;1.45;;
78781;SDS011;68126;55.748;48.742;2023-10-31T19:06:09;4.20;;;3.83;;
78781;SDS011;68126;55.748;48.742;2023-10-31T19:11:34;5.35;;;4.22;;
78781;SDS011;68126;55.748;48.742;2023-10-31T19:16:58;5.28;;;4.62;;
78781;SDS011;68126;55.748;48.742;2023-10-31T19:28:18;6.42;;;3.15;;
78781;SDS011;68126;55.748;48.742;2023-10-31T19:34:16;5.75;;;4.72;;
78781;SDS011;68126;55.748;48.742;2023-10-31T19:39:13;6.72;;;5.17;;
78781;SDS011;68126;55.748;48.742;2023-10-31T19:50:26;4.00;;;3.60;;
78781;SDS011;68126;55.748;48.742;2023-10-31T19:56:28;3.17;;;2.55;;
78781;SDS011;68126;55.748;48.742;2023-10-31T20:01:45;4.37;;;3.62;;
78781;SDS011;68126;55.748;48.742;2023-10-31T20:07:10;6.67;;;5.30;;
78781;SDS011;68126;55.748;48.742;2023-10-31T20:12:37;5.80;;;4.37;;
78781;SDS011;68126;55.748;48.742;2023-10-31T20:18:02;5.60;;;4.55;;
78781;SDS011;68126;55.748;48.742;2023-10-31T20:23:27;4.92;;;2.70;;
78781;SDS011;68126;55.748;48.742;2023-10-31T20:28:52;5.97;;;5.33;;
78781;SDS011;68126;55.748;48.742;2023-10-31T20:34:16;5.87;;;5.30;;
78781;SDS011;68126;55.748;48.742;2023-10-31T20:39:43;4.85;;;4.45;;
78781;SDS011;68126;55.748;48.742;2023-10-31T20:45:08;9.05;;;7.65;;
78781;SDS011;68126;55.748;48.742;2023-10-31T20:56:00;5.72;;;5.03;;
78781;SDS011;68126;55.748;48.742;2023-10-31T21:01:25;5.60;;;5.10;;
78781;SDS011;68126;55.748;48.742;2023-10-31T21:06:51;6.40;;;5.05;;
78781;SDS011;68126;55.748;48.742;2023-10-31T21:12:16;4.50;;;2.87;;
78781;SDS011;68126;55.748;48.742;2023-10-31T21:17:41;5.33;;;4.83;;
78781;SDS011;68126;55.748;48.742;2023-10-31T21:23:05;5.30;;;4.80;;
78781;SDS011;68126;55.748;48.742;2023-10-31T21:28:30;3.85;;;3.30;;
78781;SDS011;68126;55.748;48.742;2023-10-31T21:33:57;4.10;;;3.58;;
78781;SDS011;68126;55.748;48.742;2023-10-31T21:39:22;3.70;;;3.40;;
78781;SDS011;68126;55.748;48.742;2023-10-31T21:44:47;3.65;;;3.35;;
78781;SDS011;68126;55.748;48.742;2023-10-31T21:50:12;4.08;;;3.77;;
78781;SDS011;68126;55.748;48.742;2023-10-31T21:55:36;4.17;;;3.87;;
78781;SDS011;68126;55.748;48.742;2023-10-31T22:01:01;3.58;;;3.33;;
78781;SDS011;68126;55.748;48.742;2023-10-31T22:06:26;3.47;;;3.22;;
78781;SDS011;68126;55.748;48.742;2023-10-31T22:11:51;4.45;;;4.08;;
78781;SDS011;68126;55.748;48.742;2023-10-31T22:17:16;5.58;;;5.08;;
78781;SDS011;68126;55.748;48.742;2023-10-31T22:22:40;5.40;;;4.22;;
78781;SDS011;68126;55.748;48.742;2023-10-31T22:28:05;5.42;;;4.92;;
78781;SDS011;68126;55.748;48.742;2023-10-31T22:33:30;5.55;;;4.05;;
78781;SDS011;68126;55.748;48.742;2023-10-31T22:38:55;6.33;;;5.78;;
78781;SDS011;68126;55.748;48.742;2023-10-31T22:44:19;5.50;;;5.00;;
78781;SDS011;68126;55.748;48.742;2023-10-31T22:50:10;4.62;;;4.22;;
78781;SDS011;68126;55.748;48.742;2023-10-31T22:55:36;4.37;;;3.98;;
78781;SDS011;68126;55.748;48.742;2023-10-31T23:01:01;4.55;;;4.15;;
78781;SDS011;68126;55.748;48.742;2023-10-31T23:06:28;5.00;;;4.45;;
78781;SDS011;68126;55.748;48.742;2023-10-31T23:11:54;5.95;;;5.45;;
78781;SDS011;68126;55.748;48.742;2023-10-31T23:17:18;4.87;;;4.47;;
78781;SDS011;68126;55.748;48.742;2023-10-31T23:22:43;5.08;;;4.67;;
78781;SDS011;68126;55.748;48.742;2023-10-31T23:28:08;5.97;;;3.47;;
78781;SDS011;68126;55.748;48.742;2023-10-31T23:33:33;5.62;;;4.85;;
78781;SDS011;68126;55.748;48.742;2023-10-31T23:38:58;4.80;;;4.25;;
78781;SDS011;68126;55.748;48.742;2023-10-31T23:44:23;5.03;;;4.55;;
78781;SDS011;68126;55.748;48.742;2023-10-31T23:49:48;5.45;;;4.95;;
78781;SDS011;68126;55.748;48.742;2023-10-31T23:55:14;3.83;;;3.12;;
